Airfield :
LOGIN :

Register | Disclaimer

   EN    FR    IT 

 










Legend :    VFR   Marginal VFR   IFR   Intensive IFR   Very Intensive IFR
Visi :
Ceiling :
>= 8 km
>= 3000ft
5 to 8 km
1000 to 3000 ft
1500m to 5 km
500 to 1000 ft
800 to 1500m
200 to 500 ft
< 800m
< 200 ft
Symbols :   Thunderstorms  Fog  Heavy snow  Heavy precipitations  Wind > 20 kt
SIGMETs :     Misc.  Thunderstorms  Icing  Turbulence  Mountain Waves  Volcanic Ashes







- Airport Elevation : 1249 ft


ETSN - Neuburg AB

CURRENT METAR :
  • 270820Z 08006KT 9999 SCT010 SCT030 BKN110 20/17 Q1011 BLU BLU TEMPO GRN

EXPIRED METARs :
  • 270720Z 03004KT 9999 FEW010 SCT050 BKN110 19/17 Q1012 BLU BLU TEMPO GRN
  • 270620Z 01004KT 9999 -RA FEW010 SCT070 OVC090 18/17 Q1011 BLU BLU TEMPO GRN

TAF TAF ETSN
Valid from the 27 at 08:00 until the 27 at 17:00 UTC


270720Z 2708/2717 05005KT 8000 NSW SCT070 BKN090
TEMPO 2708/2712 08010KT 4000 RA SCT040 OVC060
PROB30 2708/2711 10015KT 3000 TSRA FEW030 BKN040CB BY ETGL
No reported NOTAMs for that airfield.



MET'MAP, your aeronautical weather chart ! - Copyright ORBIFLY December 2007 - Disclaimer

ORBIFLY MET'MAP TEAM :

Programming & Development : Alexandra Zaïnal
Concept & Development : Baudouin d'Aumeries
Co-Development & Prog : Marc-Olivier Méhu
Technical & hardware support : Manuel Goepfert

Contact : metmap@orbifly.com




SOURCES & CREDITS :

   NOAA